sensor_id;sensor_type;location;lat;lon;timestamp;P1;durP1;ratioP1;P2;durP2;ratioP2
18973;SDS011;9621;48.690;9.466;2023-04-24T00:00:14;1.77;;;1.10;;
18973;SDS011;9621;48.690;9.466;2023-04-24T00:02:42;1.80;;;1.20;;
18973;SDS011;9621;48.690;9.466;2023-04-24T00:05:12;4.22;;;1.30;;
18973;SDS011;9621;48.690;9.466;2023-04-24T00:07:39;5.82;;;1.25;;
18973;SDS011;9621;48.690;9.466;2023-04-24T00:10:07;3.25;;;1.17;;
18973;SDS011;9621;48.690;9.466;2023-04-24T00:12:34;1.33;;;0.95;;
18973;SDS011;9621;48.690;9.466;2023-04-24T00:15:03;4.03;;;1.17;;
18973;SDS011;9621;48.690;9.466;2023-04-24T00:17:31;1.85;;;1.00;;
18973;SDS011;9621;48.690;9.466;2023-04-24T00:19:58;3.03;;;1.30;;
18973;SDS011;9621;48.690;9.466;2023-04-24T00:22:26;2.08;;;1.20;;
18973;SDS011;9621;48.690;9.466;2023-04-24T00:24:53;1.83;;;0.90;;
18973;SDS011;9621;48.690;9.466;2023-04-24T00:27:20;4.05;;;1.30;;
18973;SDS011;9621;48.690;9.466;2023-04-24T00:29:47;3.15;;;1.00;;
18973;SDS011;9621;48.690;9.466;2023-04-24T00:32:16;2.05;;;1.42;;
18973;SDS011;9621;48.690;9.466;2023-04-24T00:34:43;1.23;;;0.93;;
18973;SDS011;9621;48.690;9.466;2023-04-24T00:37:10;1.88;;;1.00;;
18973;SDS011;9621;48.690;9.466;2023-04-24T00:39:37;4.63;;;1.25;;
18973;SDS011;9621;48.690;9.466;2023-04-24T00:42:04;2.25;;;0.90;;
18973;SDS011;9621;48.690;9.466;2023-04-24T00:44:31;1.73;;;0.93;;
18973;SDS011;9621;48.690;9.466;2023-04-24T00:46:59;2.28;;;0.98;;
18973;SDS011;9621;48.690;9.466;2023-04-24T00:49:28;2.00;;;1.35;;
18973;SDS011;9621;48.690;9.466;2023-04-24T00:51:55;1.92;;;1.10;;
18973;SDS011;9621;48.690;9.466;2023-04-24T00:54:24;1.38;;;1.15;;
18973;SDS011;9621;48.690;9.466;2023-04-24T00:56:51;4.15;;;1.55;;
18973;SDS011;9621;48.690;9.466;2023-04-24T00:59:18;3.45;;;1.00;;
18973;SDS011;9621;48.690;9.466;2023-04-24T01:01:45;1.55;;;1.00;;
18973;SDS011;9621;48.690;9.466;2023-04-24T01:04:13;4.55;;;1.10;;
18973;SDS011;9621;48.690;9.466;2023-04-24T01:06:42;2.17;;;1.05;;
18973;SDS011;9621;48.690;9.466;2023-04-24T01:09:10;4.55;;;0.93;;
18973;SDS011;9621;48.690;9.466;2023-04-24T01:11:38;2.40;;;1.10;;
18973;SDS011;9621;48.690;9.466;2023-04-24T01:14:07;1.38;;;0.90;;
18973;SDS011;9621;48.690;9.466;2023-04-24T01:16:34;3.67;;;1.20;;
18973;SDS011;9621;48.690;9.466;2023-04-24T01:19:03;3.45;;;1.40;;
18973;SDS011;9621;48.690;9.466;2023-04-24T01:21:30;3.17;;;0.90;;
18973;SDS011;9621;48.690;9.466;2023-04-24T01:24:02;2.08;;;0.95;;
18973;SDS011;9621;48.690;9.466;2023-04-24T01:26:29;3.53;;;1.10;;
18973;SDS011;9621;48.690;9.466;2023-04-24T01:28:56;2.58;;;1.08;;
18973;SDS011;9621;48.690;9.466;2023-04-24T01:31:23;0.90;;;0.90;;
18973;SDS011;9621;48.690;9.466;2023-04-24T01:33:50;2.00;;;1.02;;
18973;SDS011;9621;48.690;9.466;2023-04-24T01:36:18;3.03;;;1.05;;
18973;SDS011;9621;48.690;9.466;2023-04-24T01:38:46;1.10;;;1.00;;
18973;SDS011;9621;48.690;9.466;2023-04-24T01:41:14;3.95;;;1.10;;
18973;SDS011;9621;48.690;9.466;2023-04-24T01:43:42;1.23;;;0.90;;
18973;SDS011;9621;48.690;9.466;2023-04-24T01:46:09;1.90;;;1.30;;
18973;SDS011;9621;48.690;9.466;2023-04-24T01:48:36;1.88;;;1.10;;
18973;SDS011;9621;48.690;9.466;2023-04-24T01:51:03;3.63;;;1.70;;
18973;SDS011;9621;48.690;9.466;2023-04-24T01:53:30;3.08;;;1.00;;
18973;SDS011;9621;48.690;9.466;2023-04-24T01:55:57;5.03;;;1.13;;
18973;SDS011;9621;48.690;9.466;2023-04-24T01:58:25;1.30;;;1.10;;
18973;SDS011;9621;48.690;9.466;2023-04-24T02:00:53;3.28;;;0.93;;
18973;SDS011;9621;48.690;9.466;2023-04-24T02:03:22;2.47;;;0.90;;
18973;SDS011;9621;48.690;9.466;2023-04-24T02:05:49;3.22;;;1.10;;
18973;SDS011;9621;48.690;9.466;2023-04-24T02:08:16;2.08;;;1.17;;
18973;SDS011;9621;48.690;9.466;2023-04-24T02:10:43;1.83;;;1.00;;
18973;SDS011;9621;48.690;9.466;2023-04-24T02:13:10;2.25;;;1.00;;
18973;SDS011;9621;48.690;9.466;2023-04-24T02:15:38;1.50;;;0.95;;
18973;SDS011;9621;48.690;9.466;2023-04-24T02:18:05;3.20;;;1.20;;
18973;SDS011;9621;48.690;9.466;2023-04-24T02:20:32;1.38;;;1.02;;
18973;SDS011;9621;48.690;9.466;2023-04-24T02:23:00;2.92;;;1.10;;
18973;SDS011;9621;48.690;9.466;2023-04-24T02:25:27;1.50;;;0.82;;
18973;SDS011;9621;48.690;9.466;2023-04-24T02:27:54;1.55;;;1.10;;
18973;SDS011;9621;48.690;9.466;2023-04-24T02:30:21;1.15;;;0.82;;
18973;SDS011;9621;48.690;9.466;2023-04-24T02:32:49;1.33;;;0.90;;
18973;SDS011;9621;48.690;9.466;2023-04-24T02:35:16;4.18;;;0.90;;
18973;SDS011;9621;48.690;9.466;2023-04-24T02:37:43;2.90;;;1.00;;
18973;SDS011;9621;48.690;9.466;2023-04-24T02:40:10;2.03;;;0.95;;
18973;SDS011;9621;48.690;9.466;2023-04-24T02:42:37;1.65;;;0.90;;
18973;SDS011;9621;48.690;9.466;2023-04-24T02:45:05;2.08;;;1.00;;
18973;SDS011;9621;48.690;9.466;2023-04-24T02:47:32;3.80;;;1.00;;
18973;SDS011;9621;48.690;9.466;2023-04-24T02:50:00;3.20;;;0.75;;
18973;SDS011;9621;48.690;9.466;2023-04-24T02:52:27;2.25;;;0.90;;
18973;SDS011;9621;48.690;9.466;2023-04-24T02:54:54;1.05;;;0.80;;
18973;SDS011;9621;48.690;9.466;2023-04-24T02:57:21;1.33;;;0.70;;
18973;SDS011;9621;48.690;9.466;2023-04-24T02:59:48;1.30;;;0.90;;
18973;SDS011;9621;48.690;9.466;2023-04-24T03:02:15;2.30;;;0.90;;
18973;SDS011;9621;48.690;9.466;2023-04-24T03:04:42;1.10;;;0.70;;
18973;SDS011;9621;48.690;9.466;2023-04-24T03:07:12;1.77;;;0.80;;
18973;SDS011;9621;48.690;9.466;2023-04-24T03:09:39;1.45;;;0.82;;
18973;SDS011;9621;48.690;9.466;2023-04-24T03:12:06;1.98;;;0.80;;
18973;SDS011;9621;48.690;9.466;2023-04-24T03:14:33;2.40;;;0.95;;
18973;SDS011;9621;48.690;9.466;2023-04-24T03:17:00;2.20;;;0.82;;
18973;SDS011;9621;48.690;9.466;2023-04-24T03:19:26;1.55;;;0.93;;
18973;SDS011;9621;48.690;9.466;2023-04-24T03:21:53;1.02;;;0.82;;
18973;SDS011;9621;48.690;9.466;2023-04-24T03:24:21;1.75;;;0.95;;
18973;SDS011;9621;48.690;9.466;2023-04-24T03:26:48;0.98;;;0.90;;
18973;SDS011;9621;48.690;9.466;2023-04-24T03:29:15;1.23;;;1.13;;
18973;SDS011;9621;48.690;9.466;2023-04-24T03:31:42;1.30;;;1.00;;
18973;SDS011;9621;48.690;9.466;2023-04-24T03:34:09;2.60;;;1.00;;
18973;SDS011;9621;48.690;9.466;2023-04-24T03:36:36;1.27;;;0.82;;
18973;SDS011;9621;48.690;9.466;2023-04-24T03:39:03;1.30;;;0.95;;
18973;SDS011;9621;48.690;9.466;2023-04-24T03:41:31;2.00;;;0.90;;
18973;SDS011;9621;48.690;9.466;2023-04-24T03:43:58;1.95;;;0.85;;
18973;SDS011;9621;48.690;9.466;2023-04-24T03:46:25;2.90;;;1.10;;
18973;SDS011;9621;48.690;9.466;2023-04-24T03:48:52;1.15;;;0.80;;
18973;SDS011;9621;48.690;9.466;2023-04-24T03:51:19;1.60;;;1.05;;
18973;SDS011;9621;48.690;9.466;2023-04-24T03:53:46;0.88;;;0.80;;
18973;SDS011;9621;48.690;9.466;2023-04-24T03:56:13;1.80;;;1.23;;
18973;SDS011;9621;48.690;9.466;2023-04-24T03:58:42;3.13;;;0.90;;
18973;SDS011;9621;48.690;9.466;2023-04-24T04:01:09;1.98;;;1.00;;
18973;SDS011;9621;48.690;9.466;2023-04-24T04:03:36;4.72;;;1.10;;
18973;SDS011;9621;48.690;9.466;2023-04-24T04:06:03;1.98;;;1.10;;
18973;SDS011;9621;48.690;9.466;2023-04-24T04:08:30;1.13;;;0.80;;
18973;SDS011;9621;48.690;9.466;2023-04-24T04:10:57;3.05;;;1.02;;
18973;SDS011;9621;48.690;9.466;2023-04-24T04:13:24;2.42;;;1.10;;
18973;SDS011;9621;48.690;9.466;2023-04-24T04:15:52;3.10;;;1.75;;
18973;SDS011;9621;48.690;9.466;2023-04-24T04:18:19;1.98;;;1.10;;
18973;SDS011;9621;48.690;9.466;2023-04-24T04:20:46;4.35;;;1.45;;
18973;SDS011;9621;48.690;9.466;2023-04-24T04:23:13;3.85;;;1.52;;
18973;SDS011;9621;48.690;9.466;2023-04-24T04:25:40;6.85;;;1.30;;
18973;SDS011;9621;48.690;9.466;2023-04-24T04:28:07;2.10;;;1.23;;
18973;SDS011;9621;48.690;9.466;2023-04-24T04:30:34;3.92;;;1.75;;
18973;SDS011;9621;48.690;9.466;2023-04-24T04:33:04;4.72;;;1.55;;
18973;SDS011;9621;48.690;9.466;2023-04-24T04:35:31;3.17;;;1.70;;
18973;SDS011;9621;48.690;9.466;2023-04-24T04:37:58;5.32;;;1.10;;
18973;SDS011;9621;48.690;9.466;2023-04-24T04:40:25;5.30;;;1.50;;
18973;SDS011;9621;48.690;9.466;2023-04-24T04:42:53;3.15;;;1.30;;
18973;SDS011;9621;48.690;9.466;2023-04-24T04:45:20;6.57;;;1.50;;
18973;SDS011;9621;48.690;9.466;2023-04-24T04:47:47;4.60;;;1.35;;
18973;SDS011;9621;48.690;9.466;2023-04-24T04:50:15;8.18;;;1.80;;
18973;SDS011;9621;48.690;9.466;2023-04-24T04:52:44;3.97;;;1.27;;
18973;SDS011;9621;48.690;9.466;2023-04-24T04:55:11;3.15;;;1.20;;
18973;SDS011;9621;48.690;9.466;2023-04-24T04:57:40;5.45;;;1.70;;
18973;SDS011;9621;48.690;9.466;2023-04-24T05:00:08;3.92;;;1.52;;
18973;SDS011;9621;48.690;9.466;2023-04-24T05:02:36;3.28;;;1.02;;
18973;SDS011;9621;48.690;9.466;2023-04-24T05:05:04;4.00;;;1.30;;
18973;SDS011;9621;48.690;9.466;2023-04-24T05:07:33;1.98;;;1.40;;
18973;SDS011;9621;48.690;9.466;2023-04-24T05:10:00;2.30;;;1.20;;
18973;SDS011;9621;48.690;9.466;2023-04-24T05:12:27;2.08;;;1.10;;
18973;SDS011;9621;48.690;9.466;2023-04-24T05:14:54;2.45;;;1.60;;
18973;SDS011;9621;48.690;9.466;2023-04-24T05:17:21;2.28;;;1.40;;
18973;SDS011;9621;48.690;9.466;2023-04-24T05:19:47;4.07;;;1.52;;
18973;SDS011;9621;48.690;9.466;2023-04-24T05:22:14;3.20;;;1.67;;
18973;SDS011;9621;48.690;9.466;2023-04-24T05:24:44;1.50;;;1.40;;
18973;SDS011;9621;48.690;9.466;2023-04-24T05:27:12;3.97;;;1.65;;
18973;SDS011;9621;48.690;9.466;2023-04-24T05:29:39;3.28;;;1.35;;
18973;SDS011;9621;48.690;9.466;2023-04-24T05:32:06;4.88;;;1.58;;
18973;SDS011;9621;48.690;9.466;2023-04-24T05:34:32;2.03;;;1.50;;
18973;SDS011;9621;48.690;9.466;2023-04-24T05:36:59;1.98;;;1.63;;
18973;SDS011;9621;48.690;9.466;2023-04-24T05:39:26;4.50;;;1.40;;
18973;SDS011;9621;48.690;9.466;2023-04-24T05:41:55;2.45;;;1.63;;
18973;SDS011;9621;48.690;9.466;2023-04-24T05:44:23;5.57;;;1.55;;
18973;SDS011;9621;48.690;9.466;2023-04-24T05:46:50;3.05;;;1.48;;
18973;SDS011;9621;48.690;9.466;2023-04-24T05:49:17;7.15;;;1.52;;
18973;SDS011;9621;48.690;9.466;2023-04-24T05:51:52;5.84;;;1.54;;
18973;SDS011;9621;48.690;9.466;2023-04-24T05:54:19;3.10;;;1.50;;
18973;SDS011;9621;48.690;9.466;2023-04-24T05:56:46;1.63;;;1.52;;
18973;SDS011;9621;48.690;9.466;2023-04-24T05:59:14;1.65;;;1.55;;
18973;SDS011;9621;48.690;9.466;2023-04-24T06:01:41;4.78;;;1.67;;
18973;SDS011;9621;48.690;9.466;2023-04-24T06:04:08;4.05;;;1.98;;
18973;SDS011;9621;48.690;9.466;2023-04-24T06:06:35;4.03;;;1.70;;
18973;SDS011;9621;48.690;9.466;2023-04-24T06:09:02;3.78;;;1.65;;
18973;SDS011;9621;48.690;9.466;2023-04-24T06:11:30;2.20;;;1.90;;
18973;SDS011;9621;48.690;9.466;2023-04-24T06:13:56;2.88;;;2.03;;
18973;SDS011;9621;48.690;9.466;2023-04-24T06:16:27;8.35;;;2.15;;
18973;SDS011;9621;48.690;9.466;2023-04-24T06:18:55;2.35;;;2.10;;
18973;SDS011;9621;48.690;9.466;2023-04-24T06:21:22;3.22;;;2.10;;
18973;SDS011;9621;48.690;9.466;2023-04-24T06:23:49;2.83;;;1.90;;
18973;SDS011;9621;48.690;9.466;2023-04-24T06:26:16;2.30;;;1.90;;
18973;SDS011;9621;48.690;9.466;2023-04-24T06:28:45;3.10;;;2.20;;
18973;SDS011;9621;48.690;9.466;2023-04-24T06:31:12;2.72;;;2.00;;
18973;SDS011;9621;48.690;9.466;2023-04-24T06:33:40;3.05;;;2.00;;
18973;SDS011;9621;48.690;9.466;2023-04-24T06:36:07;2.03;;;1.83;;
18973;SDS011;9621;48.690;9.466;2023-04-24T06:38:35;3.05;;;1.98;;
18973;SDS011;9621;48.690;9.466;2023-04-24T06:41:04;2.53;;;1.90;;
18973;SDS011;9621;48.690;9.466;2023-04-24T06:43:32;2.67;;;2.00;;
18973;SDS011;9621;48.690;9.466;2023-04-24T06:45:59;2.80;;;1.85;;
18973;SDS011;9621;48.690;9.466;2023-04-24T06:48:28;4.20;;;2.33;;
18973;SDS011;9621;48.690;9.466;2023-04-24T06:50:56;2.55;;;2.00;;
18973;SDS011;9621;48.690;9.466;2023-04-24T06:53:23;2.63;;;1.92;;
18973;SDS011;9621;48.690;9.466;2023-04-24T06:55:50;2.92;;;1.98;;
18973;SDS011;9621;48.690;9.466;2023-04-24T06:58:17;2.28;;;1.83;;
18973;SDS011;9621;48.690;9.466;2023-04-24T07:00:44;1.95;;;1.40;;
18973;SDS011;9621;48.690;9.466;2023-04-24T07:03:11;2.65;;;1.75;;
18973;SDS011;9621;48.690;9.466;2023-04-24T07:05:38;3.17;;;1.40;;
18973;SDS011;9621;48.690;9.466;2023-04-24T07:08:08;2.28;;;1.38;;
18973;SDS011;9621;48.690;9.466;2023-04-24T07:10:36;4.03;;;1.35;;
18973;SDS011;9621;48.690;9.466;2023-04-24T07:13:03;1.38;;;1.27;;
18973;SDS011;9621;48.690;9.466;2023-04-24T07:15:31;2.55;;;1.50;;
18973;SDS011;9621;48.690;9.466;2023-04-24T07:17:59;1.40;;;1.10;;
18973;SDS011;9621;48.690;9.466;2023-04-24T07:20:26;1.30;;;1.20;;
18973;SDS011;9621;48.690;9.466;2023-04-24T07:22:53;1.58;;;1.20;;
18973;SDS011;9621;48.690;9.466;2023-04-24T07:25:21;2.63;;;1.23;;
18973;SDS011;9621;48.690;9.466;2023-04-24T07:27:48;2.10;;;1.50;;
18973;SDS011;9621;48.690;9.466;2023-04-24T07:30:15;3.53;;;1.30;;
18973;SDS011;9621;48.690;9.466;2023-04-24T07:32:42;3.78;;;1.50;;
18973;SDS011;9621;48.690;9.466;2023-04-24T07:35:09;2.05;;;1.20;;
18973;SDS011;9621;48.690;9.466;2023-04-24T07:37:36;1.42;;;1.30;;
18973;SDS011;9621;48.690;9.466;2023-04-24T07:40:04;2.08;;;1.33;;
18973;SDS011;9621;48.690;9.466;2023-04-24T07:42:33;1.30;;;1.20;;
18973;SDS011;9621;48.690;9.466;2023-04-24T07:45:01;3.35;;;1.60;;
18973;SDS011;9621;48.690;9.466;2023-04-24T07:47:28;4.00;;;1.60;;
18973;SDS011;9621;48.690;9.466;2023-04-24T07:49:55;1.65;;;1.48;;
18973;SDS011;9621;48.690;9.466;2023-04-24T07:52:23;9.38;;;1.83;;
18973;SDS011;9621;48.690;9.466;2023-04-24T07:54:50;4.38;;;1.98;;
18973;SDS011;9621;48.690;9.466;2023-04-24T07:57:23;3.50;;;1.60;;
18973;SDS011;9621;48.690;9.466;2023-04-24T07:59:52;2.35;;;1.58;;
18973;SDS011;9621;48.690;9.466;2023-04-24T08:02:19;3.88;;;1.50;;
18973;SDS011;9621;48.690;9.466;2023-04-24T08:04:51;1.65;;;1.52;;
18973;SDS011;9621;48.690;9.466;2023-04-24T08:07:18;1.50;;;1.30;;
18973;SDS011;9621;48.690;9.466;2023-04-24T08:09:45;2.13;;;1.60;;
18973;SDS011;9621;48.690;9.466;2023-04-24T08:12:11;1.95;;;1.45;;
18973;SDS011;9621;48.690;9.466;2023-04-24T08:14:38;1.63;;;1.38;;
18973;SDS011;9621;48.690;9.466;2023-04-24T08:17:07;2.83;;;1.50;;
18973;SDS011;9621;48.690;9.466;2023-04-24T08:19:34;3.08;;;1.48;;
18973;SDS011;9621;48.690;9.466;2023-04-24T08:22:00;2.33;;;1.33;;
18973;SDS011;9621;48.690;9.466;2023-04-24T08:24:29;1.58;;;1.33;;
18973;SDS011;9621;48.690;9.466;2023-04-24T08:26:56;1.67;;;1.00;;
18973;SDS011;9621;48.690;9.466;2023-04-24T08:29:23;1.60;;;1.10;;
18973;SDS011;9621;48.690;9.466;2023-04-24T08:31:51;1.73;;;1.30;;
18973;SDS011;9621;48.690;9.466;2023-04-24T08:34:21;1.63;;;1.23;;
18973;SDS011;9621;48.690;9.466;2023-04-24T08:36:48;1.90;;;1.40;;
18973;SDS011;9621;48.690;9.466;2023-04-24T08:39:15;2.70;;;1.80;;
18973;SDS011;9621;48.690;9.466;2023-04-24T08:41:43;1.75;;;1.60;;
18973;SDS011;9621;48.690;9.466;2023-04-24T08:44:12;3.47;;;1.20;;
18973;SDS011;9621;48.690;9.466;2023-04-24T08:46:41;1.70;;;1.35;;
18973;SDS011;9621;48.690;9.466;2023-04-24T08:49:10;2.42;;;1.65;;
18973;SDS011;9621;48.690;9.466;2023-04-24T08:51:39;2.65;;;1.20;;
18973;SDS011;9621;48.690;9.466;2023-04-24T08:54:07;3.92;;;1.67;;
18973;SDS011;9621;48.690;9.466;2023-04-24T08:56:34;2.33;;;1.60;;
18973;SDS011;9621;48.690;9.466;2023-04-24T08:59:04;2.25;;;1.45;;
18973;SDS011;9621;48.690;9.466;2023-04-24T09:01:31;1.10;;;1.00;;
18973;SDS011;9621;48.690;9.466;2023-04-24T09:04:00;2.25;;;1.20;;
18973;SDS011;9621;48.690;9.466;2023-04-24T09:06:28;2.38;;;1.27;;
18973;SDS011;9621;48.690;9.466;2023-04-24T09:08:58;1.63;;;1.20;;
18973;SDS011;9621;48.690;9.466;2023-04-24T09:11:29;2.72;;;1.23;;
18973;SDS011;9621;48.690;9.466;2023-04-24T09:13:56;3.15;;;1.55;;
18973;SDS011;9621;48.690;9.466;2023-04-24T09:16:24;2.13;;;1.42;;
18973;SDS011;9621;48.690;9.466;2023-04-24T09:18:52;1.67;;;1.27;;
18973;SDS011;9621;48.690;9.466;2023-04-24T09:21:20;2.92;;;1.10;;
18973;SDS011;9621;48.690;9.466;2023-04-24T09:23:57;1.23;;;1.05;;
18973;SDS011;9621;48.690;9.466;2023-04-24T09:26:28;2.15;;;1.45;;
18973;SDS011;9621;48.690;9.466;2023-04-24T09:28:57;2.10;;;1.20;;
18973;SDS011;9621;48.690;9.466;2023-04-24T09:31:26;4.28;;;1.40;;
18973;SDS011;9621;48.690;9.466;2023-04-24T09:33:54;1.50;;;1.08;;
18973;SDS011;9621;48.690;9.466;2023-04-24T09:36:29;2.83;;;1.23;;
18973;SDS011;9621;48.690;9.466;2023-04-24T09:38:59;1.80;;;1.27;;
18973;SDS011;9621;48.690;9.466;2023-04-24T09:41:27;3.28;;;1.40;;
18973;SDS011;9621;48.690;9.466;2023-04-24T09:43:55;3.38;;;1.77;;
18973;SDS011;9621;48.690;9.466;2023-04-24T09:46:29;2.95;;;1.20;;
18973;SDS011;9621;48.690;9.466;2023-04-24T09:48:57;3.88;;;1.40;;
18973;SDS011;9621;48.690;9.466;2023-04-24T09:51:33;2.50;;;1.45;;
18973;SDS011;9621;48.690;9.466;2023-04-24T09:54:04;2.13;;;1.38;;
18973;SDS011;9621;48.690;9.466;2023-04-24T09:56:39;2.67;;;1.30;;
18973;SDS011;9621;48.690;9.466;2023-04-24T09:59:08;1.42;;;1.13;;
18973;SDS011;9621;48.690;9.466;2023-04-24T10:01:36;3.65;;;1.65;;
18973;SDS011;9621;48.690;9.466;2023-04-24T10:04:07;3.60;;;1.50;;
18973;SDS011;9621;48.690;9.466;2023-04-24T10:06:42;1.10;;;1.00;;
18973;SDS011;9621;48.690;9.466;2023-04-24T10:09:11;3.70;;;1.20;;
18973;SDS011;9621;48.690;9.466;2023-04-24T10:11:41;2.35;;;0.90;;
18973;SDS011;9621;48.690;9.466;2023-04-24T10:14:09;1.75;;;0.80;;
18973;SDS011;9621;48.690;9.466;2023-04-24T10:16:37;2.85;;;0.80;;
18973;SDS011;9621;48.690;9.466;2023-04-24T10:19:05;3.75;;;1.20;;
18973;SDS011;9621;48.690;9.466;2023-04-24T10:21:33;3.72;;;0.90;;
18973;SDS011;9621;48.690;9.466;2023-04-24T10:24:01;1.00;;;0.80;;
18973;SDS011;9621;48.690;9.466;2023-04-24T10:26:31;3.17;;;0.88;;
18973;SDS011;9621;48.690;9.466;2023-04-24T10:28:58;1.88;;;1.10;;
18973;SDS011;9621;48.690;9.466;2023-04-24T10:31:25;1.55;;;0.80;;
18973;SDS011;9621;48.690;9.466;2023-04-24T10:33:55;1.02;;;0.82;;
18973;SDS011;9621;48.690;9.466;2023-04-24T10:36:22;1.45;;;1.00;;
18973;SDS011;9621;48.690;9.466;2023-04-24T10:38:51;2.72;;;1.20;;
18973;SDS011;9621;48.690;9.466;2023-04-24T10:41:21;2.22;;;1.45;;
18973;SDS011;9621;48.690;9.466;2023-04-24T10:44:04;1.10;;;1.00;;
18973;SDS011;9621;48.690;9.466;2023-04-24T10:46:32;1.58;;;1.00;;
18973;SDS011;9621;48.690;9.466;2023-04-24T10:48:59;2.90;;;1.15;;
18973;SDS011;9621;48.690;9.466;2023-04-24T10:51:43;2.00;;;0.88;;
18973;SDS011;9621;48.690;9.466;2023-04-24T10:54:24;0.80;;;0.80;;
18973;SDS011;9621;48.690;9.466;2023-04-24T10:56:52;2.70;;;0.77;;
18973;SDS011;9621;48.690;9.466;2023-04-24T10:59:27;1.48;;;1.05;;
18973;SDS011;9621;48.690;9.466;2023-04-24T11:02:02;0.80;;;0.80;;
18973;SDS011;9621;48.690;9.466;2023-04-24T11:04:29;3.78;;;0.63;;
18973;SDS011;9621;48.690;9.466;2023-04-24T11:06:58;0.70;;;0.60;;
18973;SDS011;9621;48.690;9.466;2023-04-24T11:09:26;2.10;;;0.80;;
18973;SDS011;9621;48.690;9.466;2023-04-24T11:12:02;0.88;;;0.70;;
18973;SDS011;9621;48.690;9.466;2023-04-24T11:17:30;1.02;;;0.82;;
18973;SDS011;9621;48.690;9.466;2023-04-24T11:20:01;1.27;;;0.70;;
18973;SDS011;9621;48.690;9.466;2023-04-24T11:22:32;2.90;;;0.90;;
18973;SDS011;9621;48.690;9.466;2023-04-24T11:25:01;0.57;;;0.57;;
18973;SDS011;9621;48.690;9.466;2023-04-24T11:27:29;1.15;;;0.88;;
18973;SDS011;9621;48.690;9.466;2023-04-24T11:29:59;1.45;;;1.08;;
18973;SDS011;9621;48.690;9.466;2023-04-24T11:32:29;1.50;;;0.82;;
18973;SDS011;9621;48.690;9.466;2023-04-24T11:35:01;1.77;;;1.08;;
18973;SDS011;9621;48.690;9.466;2023-04-24T11:37:33;0.93;;;0.80;;
18973;SDS011;9621;48.690;9.466;2023-04-24T11:40:02;1.23;;;0.93;;
18973;SDS011;9621;48.690;9.466;2023-04-24T11:42:33;3.38;;;1.10;;
18973;SDS011;9621;48.690;9.466;2023-04-24T11:45:06;1.52;;;0.70;;
18973;SDS011;9621;48.690;9.466;2023-04-24T11:47:34;1.27;;;1.08;;
18973;SDS011;9621;48.690;9.466;2023-04-24T11:50:01;1.45;;;0.90;;
18973;SDS011;9621;48.690;9.466;2023-04-24T11:52:29;2.55;;;1.00;;
18973;SDS011;9621;48.690;9.466;2023-04-24T11:54:57;1.35;;;1.23;;
18973;SDS011;9621;48.690;9.466;2023-04-24T11:57:24;1.80;;;1.15;;
18973;SDS011;9621;48.690;9.466;2023-04-24T11:59:53;5.40;;;1.38;;
18973;SDS011;9621;48.690;9.466;2023-04-24T12:02:23;2.45;;;1.30;;
18973;SDS011;9621;48.690;9.466;2023-04-24T12:04:50;1.02;;;0.98;;
18973;SDS011;9621;48.690;9.466;2023-04-24T12:07:18;0.82;;;0.82;;
18973;SDS011;9621;48.690;9.466;2023-04-24T12:09:46;1.63;;;1.13;;
18973;SDS011;9621;48.690;9.466;2023-04-24T12:12:14;1.13;;;1.02;;
18973;SDS011;9621;48.690;9.466;2023-04-24T12:14:44;1.63;;;0.90;;
18973;SDS011;9621;48.690;9.466;2023-04-24T12:17:13;1.63;;;1.10;;
18973;SDS011;9621;48.690;9.466;2023-04-24T12:19:46;1.52;;;0.90;;
18973;SDS011;9621;48.690;9.466;2023-04-24T12:22:15;2.50;;;0.90;;
18973;SDS011;9621;48.690;9.466;2023-04-24T12:24:55;1.38;;;0.80;;
18973;SDS011;9621;48.690;9.466;2023-04-24T12:27:23;2.40;;;1.15;;
18973;SDS011;9621;48.690;9.466;2023-04-24T12:29:53;3.90;;;0.80;;
18973;SDS011;9621;48.690;9.466;2023-04-24T12:32:22;1.15;;;1.00;;
18973;SDS011;9621;48.690;9.466;2023-04-24T12:34:51;1.35;;;1.10;;
18973;SDS011;9621;48.690;9.466;2023-04-24T12:37:18;1.00;;;0.90;;
18973;SDS011;9621;48.690;9.466;2023-04-24T12:39:58;1.17;;;0.93;;
18973;SDS011;9621;48.690;9.466;2023-04-24T12:42:26;1.48;;;0.90;;
18973;SDS011;9621;48.690;9.466;2023-04-24T12:44:56;2.85;;;1.50;;
18973;SDS011;9621;48.690;9.466;2023-04-24T12:47:24;1.88;;;0.98;;
18973;SDS011;9621;48.690;9.466;2023-04-24T12:49:53;3.00;;;0.90;;
18973;SDS011;9621;48.690;9.466;2023-04-24T12:52:20;1.30;;;1.08;;
18973;SDS011;9621;48.690;9.466;2023-04-24T12:54:48;1.10;;;1.00;;
18973;SDS011;9621;48.690;9.466;2023-04-24T12:57:15;1.33;;;1.10;;
18973;SDS011;9621;48.690;9.466;2023-04-24T12:59:42;1.15;;;1.05;;
18973;SDS011;9621;48.690;9.466;2023-04-24T13:02:09;2.38;;;1.10;;
18973;SDS011;9621;48.690;9.466;2023-04-24T13:04:39;1.00;;;0.90;;
18973;SDS011;9621;48.690;9.466;2023-04-24T13:07:07;1.33;;;1.00;;
18973;SDS011;9621;48.690;9.466;2023-04-24T13:09:34;1.50;;;0.98;;
18973;SDS011;9621;48.690;9.466;2023-04-24T13:12:02;1.77;;;0.90;;
18973;SDS011;9621;48.690;9.466;2023-04-24T13:14:30;3.15;;;1.20;;
18973;SDS011;9621;48.690;9.466;2023-04-24T13:16:57;1.80;;;1.00;;
18973;SDS011;9621;48.690;9.466;2023-04-24T13:19:24;1.60;;;0.95;;
18973;SDS011;9621;48.690;9.466;2023-04-24T13:21:52;1.85;;;1.10;;
18973;SDS011;9621;48.690;9.466;2023-04-24T13:24:22;1.00;;;0.90;;
18973;SDS011;9621;48.690;9.466;2023-04-24T13:26:50;1.40;;;1.20;;
18973;SDS011;9621;48.690;9.466;2023-04-24T13:29:18;2.25;;;1.52;;
18973;SDS011;9621;48.690;9.466;2023-04-24T13:31:46;2.28;;;1.08;;
18973;SDS011;9621;48.690;9.466;2023-04-24T13:34:14;1.10;;;1.00;;
18973;SDS011;9621;48.690;9.466;2023-04-24T13:36:41;2.45;;;1.40;;
18973;SDS011;9621;48.690;9.466;2023-04-24T13:39:08;2.47;;;0.95;;
18973;SDS011;9621;48.690;9.466;2023-04-24T13:41:36;1.23;;;1.05;;
18973;SDS011;9621;48.690;9.466;2023-04-24T13:44:04;2.75;;;1.30;;
18973;SDS011;9621;48.690;9.466;2023-04-24T13:46:31;2.92;;;1.13;;
18973;SDS011;9621;48.690;9.466;2023-04-24T13:49:01;1.70;;;1.42;;
18973;SDS011;9621;48.690;9.466;2023-04-24T13:51:28;2.13;;;1.30;;
18973;SDS011;9621;48.690;9.466;2023-04-24T13:53:55;3.63;;;1.55;;
18973;SDS011;9621;48.690;9.466;2023-04-24T13:56:22;1.55;;;1.27;;
18973;SDS011;9621;48.690;9.466;2023-04-24T13:58:51;1.45;;;1.30;;
18973;SDS011;9621;48.690;9.466;2023-04-24T14:01:19;1.75;;;1.40;;
18973;SDS011;9621;48.690;9.466;2023-04-24T14:03:46;2.65;;;1.30;;
18973;SDS011;9621;48.690;9.466;2023-04-24T14:06:13;2.17;;;1.48;;
18973;SDS011;9621;48.690;9.466;2023-04-24T14:08:40;2.30;;;1.30;;
18973;SDS011;9621;48.690;9.466;2023-04-24T14:11:07;1.23;;;1.13;;
18973;SDS011;9621;48.690;9.466;2023-04-24T14:13:34;2.50;;;1.45;;
18973;SDS011;9621;48.690;9.466;2023-04-24T14:16:03;1.92;;;1.33;;
18973;SDS011;9621;48.690;9.466;2023-04-24T14:18:30;2.05;;;1.50;;
18973;SDS011;9621;48.690;9.466;2023-04-24T14:20:57;2.83;;;1.40;;
18973;SDS011;9621;48.690;9.466;2023-04-24T14:23:26;2.28;;;1.40;;
18973;SDS011;9621;48.690;9.466;2023-04-24T14:25:52;4.28;;;1.95;;
18973;SDS011;9621;48.690;9.466;2023-04-24T14:28:20;1.65;;;1.35;;
18973;SDS011;9621;48.690;9.466;2023-04-24T14:30:47;1.73;;;1.30;;
18973;SDS011;9621;48.690;9.466;2023-04-24T14:33:15;3.85;;;1.60;;
18973;SDS011;9621;48.690;9.466;2023-04-24T14:35:43;1.60;;;1.50;;
18973;SDS011;9621;48.690;9.466;2023-04-24T14:38:10;2.28;;;1.58;;
18973;SDS011;9621;48.690;9.466;2023-04-24T14:40:37;2.88;;;1.52;;
18973;SDS011;9621;48.690;9.466;2023-04-24T14:43:04;2.08;;;1.45;;
18973;SDS011;9621;48.690;9.466;2023-04-24T14:45:31;3.15;;;1.63;;
18973;SDS011;9621;48.690;9.466;2023-04-24T14:47:58;3.58;;;2.50;;
18973;SDS011;9621;48.690;9.466;2023-04-24T14:50:26;4.47;;;2.63;;
18973;SDS011;9621;48.690;9.466;2023-04-24T14:52:53;3.70;;;2.00;;
18973;SDS011;9621;48.690;9.466;2023-04-24T14:55:22;4.10;;;2.10;;
18973;SDS011;9621;48.690;9.466;2023-04-24T14:57:49;4.97;;;3.38;;
18973;SDS011;9621;48.690;9.466;2023-04-24T15:00:17;3.97;;;2.38;;
18973;SDS011;9621;48.690;9.466;2023-04-24T15:02:45;3.45;;;2.30;;
18973;SDS011;9621;48.690;9.466;2023-04-24T15:05:12;2.92;;;2.22;;
18973;SDS011;9621;48.690;9.466;2023-04-24T15:07:40;6.32;;;2.22;;